Time;durP1;ratioP1;P1;durP2;ratioP2;P2;SDS_P1;SDS_P2;PMS_P1;PMS_P2;Temp;Humidity;BMP_temperature;BMP_pressure;BME280_temperature;BME280_humidity;BME280_pressure;Samples;Min_cycle;Max_cycle;Signal;HPM_P1;HPM_P2
2023/11/06 00:01:59;;;;;;;1.80;0.83;;;11.70;99.90;;;;;;5074402;28;20692;-69
2023/11/06 00:04:24;;;;;;;2.50;1.23;;;11.70;99.90;;;;;;5074218;28;20212;-69
2023/11/06 00:06:50;;;;;;;3.07;1.00;;;11.70;99.90;;;;;;5074379;28;20257;-70
2023/11/06 00:09:16;;;;;;;2.20;1.20;;;11.70;99.90;;;;;;5074013;28;20190;-69
2023/11/06 00:11:42;;;;;;;7.03;1.20;;;11.70;99.90;;;;;;5074323;28;20629;-69
2023/11/06 00:14:07;;;;;;;3.23;0.90;;;11.60;99.90;;;;;;5074031;28;20412;-69
2023/11/06 00:16:33;;;;;;;5.83;1.00;;;11.70;99.90;;;;;;5074120;28;20178;-69
2023/11/06 00:18:58;;;;;;;6.50;1.30;;;11.70;99.90;;;;;;5073899;28;20277;-69
2023/11/06 00:21:24;;;;;;;2.13;1.30;;;11.60;99.90;;;;;;5067188;28;20179;-69
2023/11/06 00:23:49;;;;;;;4.63;1.50;;;11.50;99.90;;;;;;5073719;28;20174;-70
2023/11/06 00:26:15;;;;;;;1.80;1.00;;;11.50;99.90;;;;;;5073946;28;20166;-69
2023/11/06 00:28:42;;;;;;;1.50;1.27;;;11.40;99.90;;;;;;5073968;28;20221;-70
2023/11/06 00:31:07;;;;;;;4.50;1.00;;;11.30;99.90;;;;;;5073211;28;20174;-70
2023/11/06 00:33:33;;;;;;;4.10;1.27;;;11.20;99.90;;;;;;5073673;28;20404;-69
2023/11/06 00:35:59;;;;;;;2.50;1.13;;;11.20;99.90;;;;;;5073849;28;20300;-69
2023/11/06 00:38:24;;;;;;;2.93;1.17;;;11.10;99.90;;;;;;5073661;28;20548;-70
2023/11/06 00:40:50;;;;;;;15.90;1.73;;;11.00;99.90;;;;;;5073728;28;20163;-70
2023/11/06 00:43:16;;;;;;;2.23;1.10;;;11.00;99.90;;;;;;5073440;28;20169;-69
2023/11/06 00:45:41;;;;;;;2.40;1.37;;;11.10;99.90;;;;;;5073726;28;20154;-69
2023/11/06 00:48:07;;;;;;;4.57;1.40;;;11.00;99.90;;;;;;5073463;28;20832;-69
2023/11/06 00:50:32;;;;;;;6.53;1.20;;;11.10;99.90;;;;;;5073679;28;20166;-70
2023/11/06 00:52:58;;;;;;;18.47;1.70;;;11.00;99.90;;;;;;5073159;28;20178;-70
2023/11/06 00:55:26;;;;;;;1.73;1.20;;;11.00;99.90;;;;;;5073184;28;20174;-69
2023/11/06 00:57:52;;;;;;;2.47;0.90;;;10.80;99.90;;;;;;5073076;28;20198;-69
2023/11/06 01:00:18;;;;;;;4.20;1.40;;;10.80;99.90;;;;;;5073252;28;20956;-70
2023/11/06 01:02:43;;;;;;;2.60;1.27;;;10.80;99.90;;;;;;5055207;28;20408;-70
2023/11/06 01:05:09;;;;;;;2.93;1.33;;;10.80;99.90;;;;;;5073259;28;20405;-70
2023/11/06 01:07:34;;;;;;;3.17;1.10;;;10.80;99.90;;;;;;5073163;28;20193;-70
2023/11/06 01:10:00;;;;;;;8.00;0.90;;;10.90;99.90;;;;;;5073076;28;20176;-69
2023/11/06 01:12:26;;;;;;;4.77;1.40;;;10.90;99.90;;;;;;5072838;28;20551;-70
2023/11/06 01:14:52;;;;;;;4.50;1.10;;;11.10;99.90;;;;;;5072983;28;20408;-69
2023/11/06 01:17:17;;;;;;;4.57;1.50;;;11.10;99.90;;;;;;5072878;28;20194;-70
2023/11/06 01:19:43;;;;;;;1.83;1.50;;;11.10;99.90;;;;;;5072860;28;20170;-70
2023/11/06 01:22:08;;;;;;;1.97;0.80;;;11.20;99.90;;;;;;5066377;28;20660;-70
2023/11/06 01:24:34;;;;;;;4.57;1.97;;;11.30;99.90;;;;;;5072648;28;20245;-69
2023/11/06 01:27:00;;;;;;;1.30;0.90;;;11.30;99.90;;;;;;5072782;28;20166;-69
2023/11/06 01:29:25;;;;;;;3.30;1.20;;;11.30;99.90;;;;;;5072593;28;20197;-69
2023/11/06 01:31:51;;;;;;;2.50;1.30;;;11.30;99.90;;;;;;5072729;28;20205;-69
2023/11/06 01:34:16;;;;;;;4.57;1.03;;;11.40;99.90;;;;;;5072541;28;20249;-69
2023/11/06 01:36:43;;;;;;;1.20;0.90;;;11.40;99.90;;;;;;5072569;28;20661;-70
2023/11/06 01:39:10;;;;;;;5.13;1.17;;;11.40;99.90;;;;;;5072516;28;20265;-70
2023/11/06 01:41:39;;;;;;;3.80;1.43;;;11.40;99.90;;;;;;5072205;28;20455;-69
2023/11/06 01:44:06;;;;;;;4.83;1.27;;;11.30;99.90;;;;;;5072260;28;20393;-69
2023/11/06 01:46:32;;;;;;;4.73;1.23;;;11.20;99.90;;;;;;5072323;28;20396;-69
2023/11/06 01:49:00;;;;;;;9.80;1.57;;;11.10;99.90;;;;;;5072232;28;20416;-69
2023/11/06 01:51:27;;;;;;;2.70;1.20;;;11.20;99.90;;;;;;5054427;28;20469;-69
2023/11/06 01:53:55;;;;;;;2.70;1.47;;;11.10;99.90;;;;;;5071886;28;20818;-69
2023/11/06 01:56:20;;;;;;;5.20;1.67;;;11.00;99.90;;;;;;5072236;28;20899;-69
2023/11/06 01:58:46;;;;;;;1.60;1.03;;;11.00;99.90;;;;;;5072040;28;20497;-69
2023/11/06 02:01:12;;;;;;;2.37;1.37;;;11.00;99.90;;;;;;5072260;28;20566;-69
2023/11/06 02:03:39;;;;;;;2.70;1.10;;;11.00;99.90;;;;;;5071931;28;20466;-70
2023/11/06 02:06:06;;;;;;;7.13;1.00;;;11.00;99.90;;;;;;5072185;28;20237;-69
2023/11/06 02:08:32;;;;;;;2.13;1.27;;;10.90;99.90;;;;;;5071915;28;20846;-69
2023/11/06 02:11:02;;;;;;;5.47;1.57;;;11.00;99.90;;;;;;5071906;28;20405;-69
2023/11/06 02:13:28;;;;;;;3.00;0.90;;;11.00;99.90;;;;;;5071867;28;20212;-69
2023/11/06 02:15:54;;;;;;;2.77;1.13;;;11.00;99.90;;;;;;5072046;28;20396;-69
2023/11/06 02:18:21;;;;;;;5.70;1.37;;;11.00;99.90;;;;;;5053686;28;20209;-69
2023/11/06 02:20:49;;;;;;;5.13;0.90;;;11.00;99.90;;;;;;5068441;28;20787;-69
2023/11/06 02:23:15;;;;;;;0.90;0.70;;;11.00;99.90;;;;;;5069021;28;20421;-69
2023/11/06 02:25:40;;;;;;;3.60;1.10;;;11.10;99.90;;;;;;5071726;28;20404;-69
2023/11/06 02:28:07;;;;;;;1.83;1.00;;;11.10;99.90;;;;;;5071754;28;20186;-70
2023/11/06 02:30:37;;;;;;;2.87;0.90;;;11.00;99.90;;;;;;5071770;28;20177;-69
2023/11/06 02:33:03;;;;;;;3.13;1.73;;;11.10;99.90;;;;;;5071431;28;20441;-70
2023/11/06 02:35:28;;;;;;;8.40;1.77;;;11.10;99.90;;;;;;5053723;28;20408;-69
2023/11/06 02:37:54;;;;;;;2.30;1.37;;;11.10;99.90;;;;;;5071567;28;21039;-70
2023/11/06 02:40:20;;;;;;;1.57;0.83;;;11.20;99.90;;;;;;5071600;28;20710;-70
2023/11/06 02:42:45;;;;;;;4.90;1.37;;;11.10;99.90;;;;;;5053630;28;20170;-70
2023/11/06 02:45:11;;;;;;;1.87;1.30;;;11.10;99.90;;;;;;5071758;28;20898;-69
2023/11/06 02:47:37;;;;;;;4.00;1.10;;;11.00;99.90;;;;;;5071566;28;20190;-69
2023/11/06 02:50:05;;;;;;;3.73;1.27;;;11.00;99.90;;;;;;5053640;28;20416;-69
2023/11/06 02:52:31;;;;;;;1.50;1.10;;;11.10;99.90;;;;;;5071578;28;20170;-69
2023/11/06 02:54:57;;;;;;;1.50;1.20;;;11.00;99.90;;;;;;5075792;28;20440;-70
2023/11/06 02:57:22;;;;;;;2.83;1.10;;;11.00;99.90;;;;;;5075296;28;20525;-69
2023/11/06 02:59:48;;;;;;;2.97;0.77;;;11.00;99.90;;;;;;5075428;28;20158;-69
2023/11/06 03:02:13;;;;;;;2.80;0.90;;;11.00;99.90;;;;;;5075419;28;20703;-69
2023/11/06 03:04:39;;;;;;;2.37;1.00;;;10.90;99.90;;;;;;5075526;28;20566;-69
2023/11/06 03:07:04;;;;;;;2.13;0.97;;;10.80;99.90;;;;;;5075467;28;20192;-69
2023/11/06 03:09:30;;;;;;;2.60;0.97;;;10.80;99.90;;;;;;5075346;28;20188;-69
2023/11/06 03:11:55;;;;;;;2.50;1.13;;;10.70;99.90;;;;;;5075385;28;20170;-69
2023/11/06 03:14:21;;;;;;;1.90;1.27;;;10.70;99.90;;;;;;5075287;28;20166;-69
2023/11/06 03:16:47;;;;;;;3.00;1.07;;;10.70;99.90;;;;;;5075192;28;20245;-69
2023/11/06 03:19:13;;;;;;;4.27;1.00;;;10.60;99.90;;;;;;5075217;28;20281;-69
2023/11/06 03:21:38;;;;;;;3.10;1.60;;;10.60;99.90;;;;;;5069328;28;20495;-69
2023/11/06 03:24:05;;;;;;;3.27;1.13;;;10.50;99.90;;;;;;5074879;28;20205;-69
2023/11/06 03:26:30;;;;;;;1.77;1.03;;;10.50;99.90;;;;;;5075038;28;20666;-69
2023/11/06 03:28:56;;;;;;;2.53;1.00;;;10.40;99.90;;;;;;5075084;28;20452;-69
2023/11/06 03:31:22;;;;;;;1.20;1.00;;;10.40;99.90;;;;;;5074980;28;20633;-69
2023/11/06 03:33:48;;;;;;;1.60;1.10;;;10.30;99.90;;;;;;5074797;28;20166;-69
2023/11/06 03:36:13;;;;;;;4.20;1.17;;;10.30;99.90;;;;;;5074950;28;20261;-69
2023/11/06 03:38:39;;;;;;;8.23;1.47;;;10.30;99.90;;;;;;5074739;28;20287;-69
2023/11/06 03:41:05;;;;;;;5.40;1.50;;;10.30;99.90;;;;;;5074953;28;20190;-69
2023/11/06 03:43:31;;;;;;;6.30;1.13;;;10.30;99.90;;;;;;5056665;28;20650;-69
2023/11/06 03:45:57;;;;;;;4.63;1.20;;;10.30;99.90;;;;;;5074832;28;20455;-69
2023/11/06 03:48:23;;;;;;;1.83;1.13;;;10.20;99.90;;;;;;5074541;28;20555;-69
2023/11/06 03:50:48;;;;;;;4.73;1.67;;;10.20;99.90;;;;;;5074718;28;20870;-69
2023/11/06 03:53:14;;;;;;;4.43;1.70;;;10.20;99.90;;;;;;5074354;28;20912;-69
2023/11/06 03:55:40;;;;;;;1.83;0.90;;;10.30;99.90;;;;;;5074676;28;20630;-69
2023/11/06 03:58:06;;;;;;;6.87;1.10;;;10.30;99.90;;;;;;5074317;28;20256;-69
2023/11/06 04:00:32;;;;;;;1.63;1.07;;;10.30;99.90;;;;;;5074499;28;20405;-69
2023/11/06 04:02:59;;;;;;;6.30;0.97;;;10.30;99.90;;;;;;5074346;28;20166;-69
2023/11/06 04:05:25;;;;;;;5.43;1.60;;;10.30;99.90;;;;;;5074219;28;20408;-69
2023/11/06 04:07:50;;;;;;;2.63;1.40;;;10.20;99.90;;;;;;5074175;28;20560;-69
2023/11/06 04:10:16;;;;;;;26.00;14.57;;;10.30;99.90;;;;;;5074271;28;20177;-69
2023/11/06 04:12:42;;;;;;;4.60;1.43;;;10.30;99.90;;;;;;5073956;28;20644;-69
2023/11/06 04:15:09;;;;;;;3.10;1.27;;;10.30;99.90;;;;;;5074180;28;20174;-69
2023/11/06 04:17:35;;;;;;;6.60;1.07;;;10.30;99.90;;;;;;5074068;28;20213;-69
2023/11/06 04:20:00;;;;;;;1.77;0.90;;;10.20;99.90;;;;;;5073875;28;20405;-69
2023/11/06 04:22:26;;;;;;;1.63;1.00;;;10.30;99.90;;;;;;5068196;28;20178;-69
2023/11/06 04:24:51;;;;;;;4.30;1.50;;;10.30;99.90;;;;;;5073913;28;20174;-69
2023/11/06 04:27:17;;;;;;;1.87;0.90;;;10.30;99.90;;;;;;5073878;28;20178;-69
2023/11/06 04:29:42;;;;;;;2.33;1.30;;;10.40;99.90;;;;;;5073930;28;20166;-69
2023/11/06 04:32:08;;;;;;;3.93;2.40;;;10.40;99.90;;;;;;5055844;28;20174;-70
2023/11/06 04:34:34;;;;;;;3.43;1.13;;;10.40;99.90;;;;;;5073887;28;20171;-70
2023/11/06 04:36:59;;;;;;;5.30;2.33;;;10.50;99.90;;;;;;5073808;28;20189;-70
2023/11/06 04:39:25;;;;;;;5.03;1.57;;;10.40;99.90;;;;;;5073744;28;20193;-70
2023/11/06 04:41:50;;;;;;;5.70;1.23;;;10.40;99.90;;;;;;5073736;28;20249;-69
2023/11/06 04:44:16;;;;;;;7.50;2.23;;;10.50;99.90;;;;;;5073563;28;20289;-69
2023/11/06 04:46:41;;;;;;;9.00;1.70;;;10.50;99.90;;;;;;5073623;28;20166;-69
2023/11/06 04:49:07;;;;;;;2.47;1.30;;;10.50;99.90;;;;;;5073456;28;20186;-69
2023/11/06 04:51:33;;;;;;;2.77;1.23;;;10.50;99.90;;;;;;5055702;28;20170;-69
2023/11/06 04:53:58;;;;;;;3.73;1.67;;;10.50;99.90;;;;;;5073252;28;20185;-70
2023/11/06 04:56:24;;;;;;;4.40;1.47;;;10.60;99.90;;;;;;5073417;28;20216;-69
2023/11/06 04:58:49;;;;;;;8.03;1.57;;;10.60;99.90;;;;;;5063245;28;20631;-69
2023/11/06 05:01:18;;;;;;;3.83;1.20;;;10.60;99.90;;;;;;5073128;28;20637;-70
2023/11/06 05:03:43;;;;;;;6.70;1.70;;;10.70;99.90;;;;;;5072965;28;20231;-69
2023/11/06 05:06:09;;;;;;;13.97;1.83;;;10.80;99.90;;;;;;5073241;28;20408;-69
2023/11/06 05:08:36;;;;;;;5.57;1.90;;;10.80;99.90;;;;;;5072955;28;20229;-69
2023/11/06 05:11:02;;;;;;;5.03;1.90;;;10.80;99.90;;;;;;5073057;28;20179;-70
2023/11/06 05:13:27;;;;;;;4.20;1.50;;;10.80;99.90;;;;;;5072908;28;20907;-70
2023/11/06 05:15:53;;;;;;;5.70;1.70;;;10.90;99.90;;;;;;5072418;28;20174;-70
2023/11/06 05:18:18;;;;;;;3.30;1.47;;;10.90;99.90;;;;;;5072765;28;20209;-69
2023/11/06 05:20:44;;;;;;;4.37;1.23;;;11.00;99.90;;;;;;5070167;28;20182;-69
2023/11/06 05:23:10;;;;;;;5.03;1.40;;;11.00;99.90;;;;;;5069979;28;20533;-69
2023/11/06 05:25:36;;;;;;;3.80;1.70;;;10.90;99.90;;;;;;5072708;28;20521;-69
2023/11/06 05:28:03;;;;;;;5.03;2.83;;;10.90;99.90;;;;;;5072590;28;20276;-69
2023/11/06 05:30:28;;;;;;;6.57;1.97;;;10.90;99.90;;;;;;5072753;28;20522;-70
2023/11/06 05:32:54;;;;;;;2.03;1.10;;;10.90;99.90;;;;;;5072513;28;20495;-70
2023/11/06 05:35:21;;;;;;;6.90;1.80;;;10.90;99.90;;;;;;5072741;28;20170;-70
2023/11/06 05:37:46;;;;;;;12.43;2.53;;;10.80;99.90;;;;;;5072493;28;20547;-70
2023/11/06 05:40:12;;;;;;;8.23;1.67;;;10.70;99.90;;;;;;5072555;28;20500;-70
2023/11/06 05:42:38;;;;;;;3.27;1.57;;;10.70;99.90;;;;;;5054469;28;20166;-70
2023/11/06 05:45:06;;;;;;;6.63;1.67;;;10.70;99.90;;;;;;5071121;28;20755;-70
2023/11/06 05:47:31;;;;;;;3.30;1.60;;;10.60;99.90;;;;;;5068677;28;20179;-71
2023/11/06 05:49:57;;;;;;;5.53;1.90;;;10.50;99.90;;;;;;5072028;28;20412;-69
2023/11/06 05:52:23;;;;;;;3.97;1.63;;;10.50;99.90;;;;;;5072072;28;20184;-68
2023/11/06 05:54:48;;;;;;;16.40;4.70;;;10.40;99.90;;;;;;5054357;28;20194;-69
2023/11/06 05:57:14;;;;;;;9.17;2.43;;;10.40;99.90;;;;;;5054224;28;20240;-69
2023/11/06 05:59:40;;;;;;;5.70;1.47;;;10.30;99.90;;;;;;5072064;28;20173;-68
2023/11/06 06:02:08;;;;;;;24.73;2.33;;;10.30;99.90;;;;;;5063589;28;20185;-69
2023/11/06 06:04:34;;;;;;;10.47;1.57;;;10.20;99.90;;;;;;5072006;28;20837;-69
2023/11/06 06:06:59;;;;;;;7.03;1.57;;;10.20;99.90;;;;;;5072003;28;20413;-69
2023/11/06 06:09:25;;;;;;;8.63;2.00;;;10.20;99.90;;;;;;5072013;28;20420;-69
2023/11/06 06:11:51;;;;;;;4.90;1.43;;;10.20;99.90;;;;;;5072113;28;20162;-68
2023/11/06 06:14:16;;;;;;;6.67;2.30;;;10.10;99.90;;;;;;5054484;28;20633;-69
2023/11/06 06:16:44;;;;;;;9.80;2.57;;;10.10;99.90;;;;;;5053997;28;20177;-69
2023/11/06 06:19:10;;;;;;;4.40;2.10;;;10.10;99.90;;;;;;5071973;28;20197;-68
2023/11/06 06:21:35;;;;;;;8.07;1.87;;;10.00;99.90;;;;;;5063502;28;20433;-69
2023/11/06 06:24:01;;;;;;;12.90;1.70;;;10.00;99.90;;;;;;5070087;28;20182;-69
2023/11/06 06:26:28;;;;;;;5.30;1.63;;;10.00;99.90;;;;;;5071858;28;20177;-69
2023/11/06 06:28:54;;;;;;;9.40;2.00;;;10.00;99.90;;;;;;5070657;28;20193;-69
2023/11/06 06:31:21;;;;;;;6.80;1.63;;;9.90;99.90;;;;;;5057894;28;20454;-69
2023/11/06 06:33:47;;;;;;;8.90;2.20;;;9.90;99.90;;;;;;5071693;28;20573;-69
2023/11/06 06:36:13;;;;;;;13.53;2.03;;;9.90;99.90;;;;;;5071876;28;20405;-69
2023/11/06 06:38:38;;;;;;;4.97;1.83;;;9.90;99.90;;;;;;5071503;28;20244;-69
2023/11/06 06:41:04;;;;;;;3.33;1.33;;;9.90;99.90;;;;;;5071783;28;20534;-69
2023/11/06 06:43:30;;;;;;;2.70;1.30;;;9.90;99.90;;;;;;5071375;28;20170;-69
2023/11/06 06:45:55;;;;;;;5.97;1.67;;;9.90;99.90;;;;;;5071673;28;20249;-69
2023/11/06 06:48:21;;;;;;;10.40;1.93;;;9.90;99.90;;;;;;5071553;28;20239;-69
2023/11/06 06:50:46;;;;;;;2.90;1.20;;;9.80;99.90;;;;;;5071643;28;20177;-69
2023/11/06 06:53:12;;;;;;;4.93;2.40;;;9.80;99.90;;;;;;5053406;28;20197;-69
2023/11/06 06:55:37;;;;;;;3.40;1.90;;;9.90;99.90;;;;;;5071702;28;20737;-69
2023/11/06 06:58:04;;;;;;;11.57;2.00;;;9.90;99.90;;;;;;5071043;28;20680;-69
2023/11/06 07:00:34;;;;;;;5.23;2.10;;;9.90;99.90;;;;;;5067753;28;20177;-69
2023/11/06 07:03:00;;;;;;;10.23;1.67;;;10.00;99.90;;;;;;5071283;28;20448;-69
2023/11/06 07:05:26;;;;;;;8.63;2.03;;;10.00;99.90;;;;;;5053339;28;20903;-69
2023/11/06 07:07:52;;;;;;;4.93;1.60;;;10.00;99.90;;;;;;5071471;28;20197;-69
2023/11/06 07:10:17;;;;;;;5.17;1.33;;;10.00;99.90;;;;;;5071269;28;20257;-69
2023/11/06 07:12:43;;;;;;;4.30;1.73;;;10.10;99.90;;;;;;5071161;28;20178;-69
2023/11/06 07:15:10;;;;;;;8.83;1.47;;;10.10;99.90;;;;;;5071532;28;20170;-69
2023/11/06 07:17:36;;;;;;;6.53;1.50;;;10.10;99.90;;;;;;5071364;28;20194;-69
2023/11/06 07:20:03;;;;;;;8.63;2.00;;;10.10;99.90;;;;;;5071392;28;20431;-69
2023/11/06 07:22:29;;;;;;;4.63;1.60;;;10.20;99.90;;;;;;5063073;28;20439;-69
2023/11/06 07:24:54;;;;;;;5.80;2.10;;;10.20;99.90;;;;;;5069218;28;20408;-69
2023/11/06 07:27:21;;;;;;;8.57;2.50;;;10.20;99.90;;;;;;5071155;28;20205;-69
2023/11/06 07:29:47;;;;;;;3.30;0.93;;;10.20;99.90;;;;;;5071302;28;20209;-68
2023/11/06 07:32:13;;;;;;;8.73;1.53;;;10.30;99.90;;;;;;5070964;28;20466;-69
2023/11/06 07:34:39;;;;;;;5.53;2.07;;;10.40;99.90;;;;;;5071189;28;20427;-70
2023/11/06 07:37:04;;;;;;;13.10;2.53;;;10.50;99.90;;;;;;5071132;28;20487;-69
2023/11/06 07:39:31;;;;;;;5.53;1.40;;;10.60;99.90;;;;;;5072901;28;20205;-69
2023/11/06 07:41:57;;;;;;;1.90;1.23;;;10.80;99.90;;;;;;5074669;28;20166;-69
2023/11/06 07:44:23;;;;;;;3.67;1.47;;;11.60;99.90;;;;;;5074605;28;20851;-68
2023/11/06 07:46:48;;;;;;;5.33;1.70;;;12.30;99.90;;;;;;5074800;28;20210;-69
2023/11/06 07:49:14;;;;;;;9.13;1.83;;;12.90;99.90;;;;;;5074776;28;20524;-69
2023/11/06 07:51:39;;;;;;;4.30;1.50;;;13.20;99.90;;;;;;5074678;28;20168;-69
2023/11/06 07:54:05;;;;;;;4.80;1.53;;;13.80;99.90;;;;;;5073210;28;20599;-69
2023/11/06 07:56:31;;;;;;;5.70;1.80;;;14.50;99.90;;;;;;5070160;28;20209;-69
2023/11/06 07:58:56;;;;;;;5.53;1.00;;;15.30;99.90;;;;;;5067878;28;20201;-69
2023/11/06 08:01:22;;;;;;;2.33;1.30;;;16.00;99.90;;;;;;5074402;28;20633;-70
2023/11/06 08:03:48;;;;;;;4.77;1.50;;;16.50;99.90;;;;;;5074351;28;21461;-69
2023/11/06 08:06:13;;;;;;;5.87;2.10;;;16.60;99.90;;;;;;5074191;28;20416;-69
2023/11/06 08:08:40;;;;;;;5.17;1.63;;;17.10;99.90;;;;;;5055824;28;20190;-69
2023/11/06 08:11:06;;;;;;;4.03;1.40;;;17.80;99.90;;;;;;5056137;28;20174;-69
2023/11/06 08:13:32;;;;;;;5.23;1.27;;;18.80;97.60;;;;;;5073800;28;20886;-69
2023/11/06 08:15:57;;;;;;;2.40;1.53;;;18.90;93.60;;;;;;5073104;28;20178;-69
2023/11/06 08:18:25;;;;;;;2.00;1.27;;;18.30;89.40;;;;;;5062563;28;20232;-69
2023/11/06 08:20:51;;;;;;;2.20;1.20;;;17.70;91.00;;;;;;5061830;28;20174;-69
2023/11/06 08:23:18;;;;;;;5.70;1.93;;;17.20;92.10;;;;;;5059506;28;20945;-69
2023/11/06 08:25:43;;;;;;;3.63;1.37;;;17.30;92.40;;;;;;5062596;28;20167;-70
2023/11/06 08:28:09;;;;;;;4.70;1.43;;;18.00;92.60;;;;;;5062120;28;20444;-70
2023/11/06 08:30:34;;;;;;;3.00;1.63;;;18.70;90.80;;;;;;5070785;28;20194;-70
2023/11/06 08:33:00;;;;;;;4.10;1.73;;;20.00;89.00;;;;;;5066920;28;20537;-70
2023/11/06 08:35:25;;;;;;;6.60;1.73;;;21.10;75.70;;;;;;5073881;28;20531;-70
2023/11/06 08:37:51;;;;;;;4.60;1.60;;;21.60;66.80;;;;;;5073714;28;20201;-70
2023/11/06 08:40:19;;;;;;;7.37;1.83;;;20.60;59.90;;;;;;5073606;28;20246;-70
2023/11/06 08:42:45;;;;;;;3.00;1.53;;;19.70;62.80;;;;;;5073388;28;20171;-70
2023/11/06 08:45:11;;;;;;;6.90;2.10;;;19.00;64.50;;;;;;5073695;28;20401;-69
2023/11/06 08:47:36;;;;;;;5.13;2.00;;;18.20;67.20;;;;;;5073662;28;20182;-69
2023/11/06 08:50:02;;;;;;;7.60;2.30;;;17.80;71.20;;;;;;5072938;28;20195;-69
2023/11/06 08:52:27;;;;;;;2.27;1.30;;;17.20;72.70;;;;;;5055139;28;20173;-70
2023/11/06 08:54:53;;;;;;;3.47;1.53;;;16.60;78.40;;;;;;5073733;28;20261;-69
2023/11/06 08:57:18;;;;;;;2.60;1.50;;;16.30;84.80;;;;;;5073355;28;20204;-69
2023/11/06 08:59:45;;;;;;;4.73;1.73;;;16.00;87.30;;;;;;5073666;28;20175;-69
2023/11/06 09:02:11;;;;;;;11.13;2.93;;;15.70;90.20;;;;;;5065918;28;20167;-69
2023/11/06 09:04:40;;;;;;;4.33;1.30;;;15.70;93.10;;;;;;5074020;28;20467;-69
2023/11/06 09:07:06;;;;;;;3.60;1.10;;;15.70;95.20;;;;;;5073346;28;20166;-69
2023/11/06 09:09:32;;;;;;;6.20;1.23;;;16.00;95.90;;;;;;5077615;28;20486;-69
2023/11/06 09:11:59;;;;;;;3.03;0.90;;;16.30;95.40;;;;;;5073186;28;20487;-69
2023/11/06 09:14:24;;;;;;;8.83;1.97;;;17.10;94.20;;;;;;5086534;28;20491;-69
2023/11/06 09:16:50;;;;;;;2.50;1.10;;;17.80;91.70;;;;;;5093279;28;20478;-69
2023/11/06 09:19:17;;;;;;;5.10;1.07;;;19.10;90.00;;;;;;5066677;28;20190;-69
2023/11/06 09:21:42;;;;;;;3.63;1.40;;;19.70;76.10;;;;;;5064481;28;20167;-70
2023/11/06 09:24:09;;;;;;;6.40;1.90;;;19.20;71.80;;;;;;5065467;28;20423;-68
2023/11/06 09:26:34;;;;;;;3.13;1.33;;;18.60;73.10;;;;;;5055006;28;20169;-69
2023/11/06 09:29:01;;;;;;;3.60;1.77;;;18.30;75.20;;;;;;5072596;28;20436;-69
2023/11/06 09:31:27;;;;;;;4.90;1.77;;;17.90;74.40;;;;;;5072582;28;20162;-68
2023/11/06 09:33:53;;;;;;;7.20;1.60;;;17.80;77.20;;;;;;5072143;28;20409;-68
2023/11/06 09:36:19;;;;;;;8.67;1.67;;;17.60;79.40;;;;;;5072165;28;20779;-68
2023/11/06 09:38:44;;;;;;;2.57;1.70;;;18.50;79.40;;;;;;5071755;28;20554;-68
2023/11/06 09:41:13;;;;;;;3.00;1.67;;;18.60;73.00;;;;;;5072421;28;20907;-68
2023/11/06 09:43:42;;;;;;;2.47;1.20;;;18.20;75.00;;;;;;5072038;28;20592;-68
2023/11/06 09:46:09;;;;;;;6.03;1.30;;;18.10;74.20;;;;;;5054527;28;20945;-68
2023/11/06 09:48:35;;;;;;;6.73;1.70;;;17.70;76.00;;;;;;5072197;28;20444;-68
2023/11/06 09:51:08;;;;;;;3.60;1.57;;;17.80;79.00;;;;;;5072109;28;20466;-68
2023/11/06 09:53:35;;;;;;;8.00;2.07;;;17.70;76.80;;;;;;5071793;28;20428;-69
2023/11/06 09:56:01;;;;;;;2.43;1.43;;;17.90;77.00;;;;;;5072126;28;20420;-68
2023/11/06 09:58:26;;;;;;;4.10;2.00;;;18.70;79.10;;;;;;5071929;28;20468;-69
2023/11/06 10:00:52;;;;;;;4.63;1.60;;;19.50;75.30;;;;;;5071998;28;20427;-69
2023/11/06 10:03:17;;;;;;;1.73;1.13;;;19.90;68.50;;;;;;5068083;28;20220;-69
2023/11/06 10:05:43;;;;;;;3.07;1.30;;;19.50;68.00;;;;;;5060234;28;20183;-69
2023/11/06 10:08:09;;;;;;;2.00;1.30;;;19.10;67.50;;;;;;5071782;28;20198;-68
2023/11/06 10:10:35;;;;;;;4.87;1.37;;;18.70;68.60;;;;;;5075522;28;20220;-68
2023/11/06 10:13:09;;;;;;;5.30;1.63;;;17.90;68.80;;;;;;5071668;28;20188;-70
2023/11/06 10:15:37;;;;;;;6.30;1.97;;;17.00;71.70;;;;;;5091994;28;20423;-68
2023/11/06 10:18:19;;;;;;;5.47;1.60;;;16.50;77.20;;;;;;5092011;28;20550;-71
2023/11/06 10:20:50;;;;;;;4.13;1.47;;;16.10;80.00;;;;;;5078188;28;20444;-68
2023/11/06 10:23:25;;;;;;;3.17;1.80;;;15.50;85.00;;;;;;5059357;28;20527;-68
2023/11/06 10:25:56;;;;;;;7.77;1.70;;;15.30;91.30;;;;;;5071653;28;20923;-68
2023/11/06 10:28:23;;;;;;;4.87;3.20;;;15.20;95.70;;;;;;5071750;28;20431;-69
2023/11/06 10:30:51;;;;;;;2.03;1.10;;;14.90;97.20;;;;;;5071470;28;20412;-68
2023/11/06 10:33:18;;;;;;;6.80;1.87;;;14.80;99.90;;;;;;5071272;28;20458;-69
2023/11/06 10:35:44;;;;;;;4.30;1.17;;;14.80;99.90;;;;;;5073801;28;20858;-68
2023/11/06 10:38:30;;;;;;;5.00;1.80;;;14.60;99.90;;;;;;5064125;28;21111;-68
2023/11/06 10:40:57;;;;;;;2.20;1.47;;;14.60;99.90;;;;;;5052883;28;20887;-69
2023/11/06 10:43:23;;;;;;;5.13;1.00;;;14.60;99.90;;;;;;5071218;28;20502;-68
2023/11/06 10:45:49;;;;;;;2.37;0.90;;;14.50;99.90;;;;;;5071498;28;20507;-68
2023/11/06 10:48:24;;;;;;;2.63;1.20;;;14.40;99.90;;;;;;5071440;28;20189;-69
2023/11/06 10:50:52;;;;;;;2.80;1.10;;;14.40;99.90;;;;;;5070012;28;20414;-70
2023/11/06 10:53:21;;;;;;;2.80;1.23;;;14.30;99.90;;;;;;5070950;28;20465;-69
2023/11/06 10:55:47;;;;;;;3.43;1.00;;;14.20;99.90;;;;;;5071356;28;20408;-68
2023/11/06 10:58:15;;;;;;;6.47;1.17;;;14.20;99.90;;;;;;5071213;28;20460;-68
2023/11/06 11:00:42;;;;;;;4.17;1.27;;;14.10;99.90;;;;;;5071462;28;20424;-69
2023/11/06 11:03:08;;;;;;;2.47;1.20;;;14.20;99.90;;;;;;5071216;28;20426;-69
2023/11/06 11:05:35;;;;;;;2.40;1.10;;;14.20;99.90;;;;;;5071486;28;20461;-70
2023/11/06 11:08:00;;;;;;;5.90;1.27;;;14.30;99.90;;;;;;5071368;28;20428;-68
2023/11/06 11:10:27;;;;;;;3.23;1.27;;;14.40;99.90;;;;;;5071509;28;20415;-69
2023/11/06 11:12:56;;;;;;;17.70;1.33;;;14.60;99.90;;;;;;5071079;28;20162;-69
2023/11/06 11:15:26;;;;;;;6.00;1.30;;;14.80;99.90;;;;;;5089395;28;20412;-69
2023/11/06 11:18:13;;;;;;;3.00;1.33;;;15.20;99.90;;;;;;5068990;28;20472;-69
2023/11/06 11:20:55;;;;;;;1.40;0.90;;;16.90;99.90;;;;;;5068407;28;20791;-70
2023/11/06 11:23:39;;;;;;;2.07;0.80;;;18.50;99.90;;;;;;5064148;28;20420;-69
2023/11/06 11:26:09;;;;;;;4.60;1.30;;;18.50;94.50;;;;;;5067087;28;20396;-69
2023/11/06 11:28:57;;;;;;;2.13;1.13;;;18.30;91.30;;;;;;5075089;28;20772;-69
2023/11/06 11:31:42;;;;;;;2.50;1.37;;;17.70;92.00;;;;;;5055194;28;20405;-69
2023/11/06 11:34:08;;;;;;;2.20;1.17;;;17.00;94.50;;;;;;5058146;28;20472;-69
2023/11/06 11:36:38;;;;;;;2.03;1.00;;;16.50;97.30;;;;;;5075050;28;20396;-69
2023/11/06 11:39:13;;;;;;;1.00;0.73;;;16.30;99.90;;;;;;5074813;28;20977;-69
2023/11/06 11:41:59;;;;;;;1.60;1.03;;;16.10;99.90;;;;;;5074872;28;20396;-69
2023/11/06 11:44:25;;;;;;;2.90;0.80;;;16.10;99.90;;;;;;5074580;28;20567;-69
2023/11/06 11:46:50;;;;;;;3.53;0.90;;;16.00;99.90;;;;;;5074786;28;20396;-69
2023/11/06 11:49:35;;;;;;;2.70;1.10;;;15.70;99.90;;;;;;5056833;28;20436;-69
2023/11/06 11:52:00;;;;;;;1.87;1.20;;;15.50;99.90;;;;;;5074308;28;20158;-68
2023/11/06 11:54:33;;;;;;;5.47;1.00;;;15.40;99.90;;;;;;5074228;28;21002;-68
2023/11/06 11:57:02;;;;;;;3.00;1.00;;;15.20;99.90;;;;;;5074298;28;20178;-68
2023/11/06 11:59:30;;;;;;;1.50;1.10;;;15.00;99.90;;;;;;5074370;28;20448;-69
2023/11/06 12:01:58;;;;;;;3.00;0.80;;;15.10;99.90;;;;;;5074502;28;20890;-68
2023/11/06 12:04:24;;;;;;;4.87;1.40;;;15.30;99.90;;;;;;5074232;28;20457;-69
2023/11/06 12:06:59;;;;;;;1.00;0.80;;;15.50;99.90;;;;;;5074505;28;20415;-68
2023/11/06 12:09:25;;;;;;;2.77;1.10;;;15.60;99.90;;;;;;5074307;28;20457;-68
2023/11/06 12:11:51;;;;;;;1.93;1.03;;;15.50;99.90;;;;;;5074370;28;20404;-69
2023/11/06 12:14:16;;;;;;;2.13;0.70;;;15.50;99.90;;;;;;5074159;28;20397;-68
2023/11/06 12:16:49;;;;;;;2.23;1.50;;;15.30;99.90;;;;;;5074298;28;20414;-69
2023/11/06 12:19:15;;;;;;;3.33;1.00;;;15.10;99.90;;;;;;5073887;28;20738;-69
2023/11/06 12:21:41;;;;;;;5.30;1.00;;;15.00;99.90;;;;;;5071685;28;20440;-69
2023/11/06 12:24:08;;;;;;;2.20;0.80;;;14.90;99.90;;;;;;5073837;28;20499;-68
2023/11/06 12:26:35;;;;;;;1.37;0.90;;;14.90;99.90;;;;;;5073967;28;20417;-68
2023/11/06 12:29:01;;;;;;;2.97;0.80;;;14.70;99.90;;;;;;5073785;28;20547;-68
2023/11/06 12:31:35;;;;;;;0.80;0.60;;;14.70;99.90;;;;;;5073733;28;20959;-69
2023/11/06 12:34:01;;;;;;;1.30;0.60;;;14.70;99.90;;;;;;5068507;28;20188;-68
2023/11/06 12:36:29;;;;;;;3.90;0.80;;;15.10;99.90;;;;;;5072979;28;20416;-69
2023/11/06 12:38:55;;;;;;;2.07;0.73;;;15.70;99.90;;;;;;5055414;28;20202;-69
2023/11/06 12:41:31;;;;;;;1.50;0.80;;;16.00;99.90;;;;;;5073718;28;20434;-68
2023/11/06 12:44:00;;;;;;;0.90;0.77;;;16.00;99.90;;;;;;5055406;28;20594;-69